createdAt,value
2019-05-19T08:36:15.095Z,16544.00
2019-05-19T08:37:15.140Z,16064.00
2019-05-19T08:38:15.063Z,15936.00
2019-05-19T08:39:15.050Z,16672.00
2019-05-19T08:40:15.049Z,16544.00
2019-05-19T08:41:15.026Z,17312.00
2019-05-19T08:42:15.017Z,17600.00
2019-05-19T08:43:15.005Z,15136.00
2019-05-19T08:44:14.994Z,13648.00
2019-05-19T08:45:14.990Z,13092.00
2019-05-19T08:46:14.973Z,12904.00
2019-05-19T08:47:14.964Z,13068.00
2019-05-19T08:48:14.950Z,13544.00
2019-05-19T08:49:14.938Z,14312.00
2019-05-19T08:50:14.940Z,14812.00
2019-05-19T08:51:14.919Z,15376.00
2019-05-19T08:52:14.910Z,15124.00
2019-05-19T08:53:14.898Z,15380.00
2019-05-19T08:54:18.705Z,18784.00
2019-05-19T08:55:14.885Z,25376.00
2019-05-19T08:56:14.865Z,27808.00
2019-05-19T08:57:14.859Z,23648.00
2019-05-19T08:58:14.884Z,23072.00
2019-05-19T08:59:14.827Z,24928.00
2019-05-19T09:00:14.833Z,23328.00
2019-05-19T09:01:14.808Z,23680.00
2019-05-19T09:02:14.796Z,20928.00
2019-05-19T09:03:14.791Z,20864.00
2019-05-19T09:04:14.776Z,20512.00
2019-05-19T09:05:14.772Z,24064.00
2019-05-19T09:06:14.757Z,21184.00
2019-05-19T09:07:14.742Z,25856.00
2019-05-19T09:08:14.730Z,33792.00
2019-05-19T09:09:14.723Z,39424.00
2019-05-19T09:10:14.711Z,41248.00
2019-05-19T09:11:14.724Z,40064.00
2019-05-19T09:12:14.689Z,36928.00
2019-05-19T09:13:14.685Z,37824.00
2019-05-19T09:14:14.670Z,40160.00
2019-05-19T09:15:14.660Z,41696.00
2019-05-19T09:16:14.685Z,36608.00
2019-05-19T09:17:14.641Z,36896.00
2019-05-19T09:18:14.621Z,38432.00
2019-05-19T09:19:14.610Z,34656.00
2019-05-19T09:20:14.602Z,35904.00
2019-05-19T09:21:14.601Z,29472.00
2019-05-19T09:22:14.581Z,36160.00
2019-05-19T09:23:14.567Z,38688.00
2019-05-19T09:24:29.261Z,39488.00
2019-05-19T09:25:15.545Z,38528.00
2019-05-19T09:26:14.545Z,31392.00
2019-05-19T09:27:14.534Z,33888.00
2019-05-19T09:28:14.515Z,31872.00
2019-05-19T09:29:14.504Z,31360.00
2019-05-19T09:30:14.495Z,33952.00
2019-05-19T09:31:14.493Z,36064.00
2019-05-19T09:32:14.471Z,36928.00
2019-05-19T09:33:14.471Z,35648.00
2019-05-19T09:34:14.452Z,36608.00
2019-05-19T09:35:14.441Z,37952.00
2019-05-19T09:36:14.436Z,36832.00
2019-05-19T09:37:14.418Z,36896.00
2019-05-19T09:38:14.407Z,36992.00
2019-05-19T09:39:14.395Z,36928.00
2019-05-19T09:40:14.389Z,32000.00
2019-05-19T09:41:14.391Z,31744.00
2019-05-19T09:42:14.367Z,31072.00
2019-05-19T09:43:14.600Z,28992.00
2019-05-19T09:44:14.347Z,26208.00
2019-05-19T09:45:14.378Z,23552.00
2019-05-19T09:46:14.338Z,24320.00
2019-05-19T09:47:14.320Z,26176.00
2019-05-19T09:48:14.387Z,26656.00
2019-05-19T09:49:14.291Z,28960.00
2019-05-19T09:50:14.279Z,30432.00
2019-05-19T09:51:14.268Z,30976.00
2019-05-19T09:52:17.068Z,32832.00
2019-05-19T09:53:14.251Z,36864.00
2019-05-19T09:54:14.239Z,40320.00
2019-05-19T09:55:14.228Z,39904.00
2019-05-19T09:56:14.219Z,42080.00
2019-05-19T09:57:14.221Z,42880.00
2019-05-19T09:58:17.117Z,43616.00
2019-05-19T09:59:15.183Z,43168.00
2019-05-19T10:00:14.174Z,41760.00
2019-05-19T10:01:14.164Z,40736.00
2019-05-19T10:02:14.167Z,37920.00
2019-05-19T10:03:14.144Z,32672.00
2019-05-19T10:04:14.134Z,32288.00
2019-05-19T10:05:14.122Z,37600.00
2019-05-19T10:06:14.113Z,41088.00
2019-05-19T10:07:14.214Z,41440.00
2019-05-19T10:08:14.089Z,39584.00
2019-05-19T10:09:14.079Z,33696.00
2019-05-19T10:10:14.087Z,39968.00
2019-05-19T10:11:14.057Z,43744.00
2019-05-19T10:12:14.062Z,45920.00
2019-05-19T10:13:14.038Z,45568.00
2019-05-19T10:14:14.028Z,47872.00
2019-05-19T10:15:14.018Z,44992.00
2019-05-19T10:16:14.006Z,45792.00
2019-05-19T10:17:14.006Z,57056.00
2019-05-19T10:18:13.987Z,57728.00
2019-05-19T10:19:13.974Z,60064.00
2019-05-19T10:20:13.964Z,63552.00
2019-05-19T10:21:13.958Z,64224.00
2019-05-19T10:22:13.950Z,58848.00
2019-05-19T10:23:13.939Z,64288.00
2019-05-19T10:24:13.927Z,66272.00
2019-05-19T10:25:22.850Z,63744.00
2019-05-19T10:26:14.899Z,54304.00
2019-05-19T10:27:13.903Z,57056.00
2019-05-19T10:28:13.884Z,60000.00
2019-05-19T10:29:13.870Z,59872.00
2019-05-19T10:30:13.865Z,62016.00
2019-05-19T10:31:13.850Z,54304.00
2019-05-19T10:32:13.842Z,66656.00
2019-05-19T10:33:13.863Z,73056.00
2019-05-19T10:34:13.820Z,72096.00
2019-05-19T10:35:13.811Z,73536.00
2019-05-19T10:36:13.801Z,66336.00
2019-05-19T10:37:13.788Z,62656.00
2019-05-19T10:38:13.793Z,62688.00
2019-05-19T10:39:13.770Z,57920.00
2019-05-19T10:40:13.760Z,39456.00
2019-05-19T10:41:13.786Z,26368.00
2019-05-19T10:42:13.830Z,24320.00
2019-05-19T10:43:13.737Z,23232.00
2019-05-19T10:44:13.718Z,22688.00
2019-05-19T10:45:13.711Z,22272.00
2019-05-19T10:46:13.698Z,22464.00
2019-05-19T10:47:13.700Z,22656.00
2019-05-19T10:48:13.689Z,22848.00
2019-05-19T10:49:13.668Z,23104.00
2019-05-19T10:50:13.659Z,24256.00
2019-05-19T10:51:13.664Z,28256.00
2019-05-19T10:52:13.649Z,47488.00
2019-05-19T10:53:13.639Z,62880.00
2019-05-19T10:54:13.617Z,65632.00
2019-05-19T10:55:13.610Z,65152.00
2019-05-19T10:56:13.597Z,63808.00
2019-05-19T10:57:13.589Z,62656.00
2019-05-19T10:58:13.594Z,61184.00
2019-05-19T10:59:13.574Z,60192.00
2019-05-19T11:00:13.561Z,60512.00
2019-05-19T11:01:13.548Z,59872.00
2019-05-19T11:02:13.545Z,60384.00
2019-05-19T11:03:13.538Z,58752.00
2019-05-19T11:04:13.538Z,57664.00
2019-05-19T11:05:13.511Z,55680.00
2019-05-19T11:06:13.581Z,55328.00
2019-05-19T11:07:13.493Z,56192.00
2019-05-19T11:08:13.491Z,55872.00
2019-05-19T11:09:13.470Z,53056.00
2019-05-19T11:10:13.459Z,50144.00
2019-05-19T11:11:13.459Z,49472.00
2019-05-19T11:12:13.440Z,46816.00
2019-05-19T11:13:13.451Z,48800.00
2019-05-19T11:14:13.419Z,49888.00
2019-05-19T11:15:13.408Z,50592.00
2019-05-19T11:16:13.398Z,51232.00
2019-05-19T11:17:13.393Z,50784.00
2019-05-19T11:18:13.393Z,49408.00
2019-05-19T11:19:13.371Z,50368.00
2019-05-19T11:20:13.363Z,49792.00
2019-05-19T11:21:13.351Z,48992.00
2019-05-19T11:22:13.343Z,48224.00
2019-05-19T11:23:13.346Z,47648.00
2019-05-19T11:24:13.363Z,45728.00
2019-05-19T11:25:13.309Z,42944.00
2019-05-19T11:26:13.309Z,37440.00
2019-05-19T11:27:13.328Z,34432.00
2019-05-19T11:28:13.292Z,31488.00
2019-05-19T11:29:13.275Z,29760.00
2019-05-19T11:30:13.259Z,31648.00
2019-05-19T11:31:13.248Z,27776.00
2019-05-19T11:32:13.242Z,29248.00
2019-05-19T11:33:13.244Z,28480.00
2019-05-19T11:34:13.222Z,30912.00
2019-05-19T11:35:13.210Z,29920.00
2019-05-19T11:36:13.215Z,32512.00
2019-05-19T11:37:13.195Z,29184.00
2019-05-19T11:38:13.178Z,26144.00
2019-05-19T11:39:13.178Z,23168.00
2019-05-19T11:40:13.162Z,19456.00
2019-05-19T11:41:13.152Z,18240.00
2019-05-19T11:42:13.142Z,20096.00
2019-05-19T11:43:13.131Z,19584.00
2019-05-19T11:44:13.129Z,17888.00
2019-05-19T11:45:13.170Z,18592.00
2019-05-19T11:46:13.105Z,20640.00
2019-05-19T11:47:13.085Z,19200.00
2019-05-19T11:48:13.076Z,18752.00
2019-05-19T11:49:13.075Z,19520.00
2019-05-19T11:50:13.060Z,19232.00
2019-05-19T11:51:13.044Z,17088.00
2019-05-19T11:52:13.050Z,18688.00
2019-05-19T11:53:13.032Z,21792.00
2019-05-19T11:54:13.024Z,17824.00
2019-05-19T11:55:13.003Z,19136.00
2019-05-19T11:56:12.995Z,21664.00
2019-05-19T11:57:12.984Z,20384.00
2019-05-19T11:58:12.970Z,19040.00
2019-05-19T11:59:12.970Z,17600.00
2019-05-19T12:00:12.953Z,18496.00
2019-05-19T12:01:12.943Z,16032.00
2019-05-19T12:02:12.928Z,15872.00
2019-05-19T12:03:12.936Z,15292.00
2019-05-19T12:04:12.917Z,15364.00
2019-05-19T12:05:12.898Z,14912.00
2019-05-19T12:06:12.888Z,15052.00
2019-05-19T12:07:12.884Z,16000.00
2019-05-19T12:08:12.869Z,15744.00
2019-05-19T12:09:12.867Z,14852.00
2019-05-19T12:10:12.844Z,14424.00
2019-05-19T12:11:12.833Z,14040.00
2019-05-19T12:12:12.823Z,13732.00
2019-05-19T12:13:12.812Z,13480.00
2019-05-19T12:14:12.814Z,13196.00
2019-05-19T12:15:12.795Z,12980.00
2019-05-19T12:16:12.781Z,12868.00
2019-05-19T12:17:12.885Z,13012.00
2019-05-19T12:18:12.760Z,12884.00
2019-05-19T12:19:12.766Z,12780.00
2019-05-19T12:20:12.739Z,12584.00
2019-05-19T12:21:12.731Z,12476.00
2019-05-19T12:22:12.714Z,12488.00
2019-05-19T12:23:12.711Z,12368.00
2019-05-19T12:24:12.701Z,12180.00
2019-05-19T12:25:12.684Z,11916.00
2019-05-19T12:26:22.694Z,11816.00
2019-05-19T12:27:13.662Z,11784.00
2019-05-19T12:28:12.652Z,11768.00
2019-05-19T12:29:12.653Z,11768.00
2019-05-19T12:30:12.633Z,11772.00
2019-05-19T12:31:12.633Z,11800.00
2019-05-19T12:32:12.617Z,11860.00
2019-05-19T12:33:12.599Z,11936.00
2019-05-19T12:34:12.602Z,12004.00
2019-05-19T12:35:12.576Z,12080.00
2019-05-19T12:36:12.570Z,12164.00
2019-05-19T12:37:12.554Z,12280.00
2019-05-19T12:38:12.592Z,12400.00
2019-05-19T12:39:12.608Z,12544.00
2019-05-19T12:40:12.537Z,12680.00
2019-05-19T12:41:12.510Z,12824.00
2019-05-19T12:42:12.502Z,12988.00
2019-05-19T12:43:12.488Z,13192.00
2019-05-19T12:44:12.497Z,13400.00
2019-05-19T12:45:12.468Z,13568.00
2019-05-19T12:46:16.544Z,13704.00
2019-05-19T12:47:12.446Z,13800.00
2019-05-19T12:48:12.439Z,13900.00
2019-05-19T12:49:12.422Z,14064.00
2019-05-19T12:50:12.427Z,14256.00
2019-05-19T12:51:12.418Z,14500.00
2019-05-19T12:52:12.391Z,14808.00
2019-05-19T12:53:12.383Z,15108.00
2019-05-19T12:54:12.372Z,15420.00
2019-05-19T12:55:12.377Z,15808.00
2019-05-19T12:56:12.348Z,16160.00
2019-05-19T12:57:12.340Z,16512.00
2019-05-19T12:58:12.327Z,16832.00
2019-05-19T12:59:12.322Z,17248.00
2019-05-19T13:00:12.321Z,17696.00
2019-05-19T13:01:12.295Z,18112.00
2019-05-19T13:02:12.286Z,18272.00
2019-05-19T13:03:12.274Z,18336.00
2019-05-19T13:04:12.262Z,18464.00
2019-05-19T13:05:12.271Z,18400.00
2019-05-19T13:06:12.247Z,18240.00
2019-05-19T13:07:12.231Z,18112.00
2019-05-19T13:08:12.240Z,17984.00
2019-05-19T13:09:12.212Z,17664.00
2019-05-19T13:10:12.207Z,17248.00
2019-05-19T13:11:12.189Z,17120.00
2019-05-19T13:12:12.176Z,17344.00
2019-05-19T13:13:12.168Z,17472.00
2019-05-19T13:14:12.162Z,17248.00
2019-05-19T13:15:15.384Z,17088.00
2019-05-19T13:16:12.132Z,17088.00
2019-05-19T13:17:12.124Z,17248.00
2019-05-19T13:18:12.118Z,17504.00
2019-05-19T13:19:12.109Z,17568.00
2019-05-19T13:20:12.104Z,17632.00
2019-05-19T13:21:12.078Z,17632.00
2019-05-19T13:22:12.069Z,17504.00
2019-05-19T13:23:12.058Z,17248.00
2019-05-19T13:24:12.051Z,16800.00
2019-05-19T13:25:12.044Z,16224.00
2019-05-19T13:26:12.040Z,15808.00
2019-05-19T13:27:12.014Z,15200.00
2019-05-19T13:28:12.004Z,14624.00
2019-05-19T13:29:11.996Z,13764.00
2019-05-19T13:30:11.993Z,12108.00
2019-05-19T13:31:11.973Z,8856.00
2019-05-19T13:32:11.961Z,7120.00
2019-05-19T13:33:11.950Z,6116.00
2019-05-19T13:34:11.940Z,6136.00
2019-05-19T13:35:11.940Z,6452.00
2019-05-19T13:36:11.920Z,7056.00
2019-05-19T13:37:11.907Z,7376.00
2019-05-19T13:38:11.897Z,7596.00
2019-05-19T13:39:11.890Z,7664.00
2019-05-19T13:40:11.887Z,7604.00
2019-05-19T13:41:11.868Z,7268.00
2019-05-19T13:42:11.865Z,7336.00
2019-05-19T13:43:11.850Z,6720.00
2019-05-19T13:44:11.834Z,6128.00
2019-05-19T13:45:11.828Z,5468.00
2019-05-19T13:46:11.815Z,4728.00
2019-05-19T13:47:11.807Z,4016.00
2019-05-19T13:48:11.793Z,3456.00
2019-05-19T13:49:11.782Z,3072.00
2019-05-19T13:50:11.779Z,2820.00
2019-05-19T13:51:11.758Z,2736.00
2019-05-19T13:52:11.744Z,2756.00
2019-05-19T13:53:11.736Z,2832.00
2019-05-19T13:54:11.722Z,2916.00
2019-05-19T13:55:11.737Z,3056.00
2019-05-19T13:56:11.705Z,3196.00
2019-05-19T13:57:12.847Z,3352.00
2019-05-19T13:58:11.679Z,3476.00
2019-05-19T13:59:11.670Z,3512.00
2019-05-19T14:00:11.670Z,3392.00
2019-05-19T14:01:27.293Z,3104.00
2019-05-19T14:02:12.635Z,2764.00
2019-05-19T14:03:11.627Z,2444.00
2019-05-19T14:04:11.615Z,2260.00
2019-05-19T14:05:11.616Z,2172.00
2019-05-19T14:06:11.595Z,2108.00
2019-05-19T14:07:11.584Z,2044.00
2019-05-19T14:08:11.571Z,1940.00
2019-05-19T14:09:15.017Z,1816.00
2019-05-19T14:10:11.558Z,1684.00
2019-05-19T14:11:11.545Z,1524.00
2019-05-19T14:12:11.527Z,1364.00
2019-05-19T14:13:11.514Z,1208.00
2019-05-19T14:14:11.507Z,1056.00
2019-05-19T14:15:11.495Z,944.00
2019-05-19T14:16:11.492Z,852.00
2019-05-19T14:17:11.476Z,780.00
2019-05-19T14:18:11.468Z,716.00
2019-05-19T14:19:11.456Z,656.00
2019-05-19T14:20:11.437Z,612.00
2019-05-19T14:21:11.443Z,568.00
2019-05-19T14:22:11.420Z,520.00
2019-05-19T14:23:11.404Z,472.00
2019-05-19T14:24:11.394Z,428.00
2019-05-19T14:25:11.382Z,396.00
2019-05-19T14:26:11.382Z,372.00
2019-05-19T14:27:14.242Z,356.00
2019-05-19T14:28:12.349Z,344.00
2019-05-19T14:29:11.339Z,332.00
2019-05-19T14:30:11.327Z,328.00
2019-05-19T14:31:11.331Z,320.00
2019-05-19T14:32:11.304Z,332.00
2019-05-19T14:33:11.293Z,340.00
2019-05-19T14:34:11.282Z,348.00
2019-05-19T14:35:11.275Z,352.00
2019-05-19T14:36:11.270Z,356.00
2019-05-19T14:37:11.248Z,360.00
2019-05-19T14:38:11.240Z,368.00
2019-05-19T14:39:11.231Z,376.00
2019-05-19T14:40:11.217Z,384.00
2019-05-19T14:41:11.214Z,384.00
2019-05-19T14:42:11.193Z,392.00
2019-05-19T14:43:11.184Z,396.00
2019-05-19T14:44:11.174Z,400.00
2019-05-19T14:45:11.171Z,396.00
2019-05-19T14:46:11.172Z,404.00
2019-05-19T14:47:11.137Z,404.00
2019-05-19T14:48:11.126Z,412.00
2019-05-19T14:49:11.117Z,424.00
2019-05-19T14:50:11.106Z,432.00
2019-05-19T14:51:11.103Z,448.00
2019-05-19T14:52:11.083Z,460.00
2019-05-19T14:53:11.096Z,472.00
2019-05-19T14:54:11.061Z,488.00
2019-05-19T14:55:11.051Z,496.00
2019-05-19T14:56:11.074Z,504.00
2019-05-19T14:57:11.028Z,516.00
2019-05-19T14:58:11.020Z,520.00
2019-05-19T14:59:11.003Z,540.00
2019-05-19T15:00:10.992Z,552.00
2019-05-19T15:01:10.994Z,576.00
2019-05-19T15:02:10.969Z,604.00
2019-05-19T15:03:10.961Z,628.00
2019-05-19T15:04:10.949Z,656.00
2019-05-19T15:05:10.940Z,688.00
2019-05-19T15:06:10.933Z,720.00
2019-05-19T15:07:10.916Z,752.00
2019-05-19T15:08:10.902Z,784.00
2019-05-19T15:09:10.899Z,820.00
2019-05-19T15:10:10.883Z,852.00
2019-05-19T15:11:10.881Z,884.00
2019-05-19T15:12:10.901Z,908.00
2019-05-19T15:13:10.854Z,932.00
2019-05-19T15:14:10.834Z,952.00
2019-05-19T15:15:10.824Z,976.00
2019-05-19T15:16:10.820Z,1008.00
2019-05-19T15:17:10.801Z,1032.00
2019-05-19T15:18:10.795Z,1080.00
2019-05-19T15:19:10.779Z,1120.00
2019-05-19T15:20:10.767Z,1168.00
2019-05-19T15:21:10.772Z,1216.00
2019-05-19T15:22:10.746Z,1268.00
2019-05-19T15:23:10.737Z,1316.00
2019-05-19T15:24:10.724Z,1372.00
2019-05-19T15:25:10.713Z,1424.00
2019-05-19T15:26:10.710Z,1480.00
2019-05-19T15:27:10.694Z,1548.00
2019-05-19T15:28:10.680Z,1624.00
2019-05-19T15:29:10.670Z,1700.00
2019-05-19T15:30:13.416Z,1780.00
2019-05-19T15:31:10.653Z,1856.00
2019-05-19T15:32:10.634Z,1928.00
2019-05-19T15:33:10.622Z,2012.00
2019-05-19T15:34:10.617Z,2104.00
2019-05-19T15:35:10.606Z,2200.00
2019-05-19T15:36:10.597Z,2316.00
2019-05-19T15:37:10.580Z,2440.00
2019-05-19T15:38:10.570Z,2560.00
2019-05-19T15:39:10.555Z,2688.00
2019-05-19T15:40:10.544Z,2816.00
2019-05-19T15:41:10.533Z,2952.00
2019-05-19T15:42:10.533Z,3076.00
2019-05-19T15:43:10.511Z,3204.00
2019-05-19T15:44:10.500Z,3320.00
2019-05-19T15:45:10.499Z,3420.00
2019-05-19T15:46:10.478Z,3520.00
2019-05-19T15:47:10.485Z,3600.00
2019-05-19T15:48:10.456Z,3680.00
2019-05-19T15:49:10.447Z,3756.00
2019-05-19T15:50:10.431Z,3832.00
2019-05-19T15:51:10.421Z,3900.00
2019-05-19T15:52:10.427Z,3960.00
2019-05-19T15:53:10.399Z,4004.00
2019-05-19T15:54:10.388Z,4036.00
2019-05-19T15:55:10.400Z,4048.00
2019-05-19T15:56:10.383Z,4044.00
2019-05-19T15:57:10.432Z,4040.00
2019-05-19T15:58:16.434Z,4032.00
2019-05-19T15:59:11.336Z,4020.00
2019-05-19T16:00:10.509Z,4004.00
2019-05-19T16:01:10.311Z,3988.00
2019-05-19T16:02:10.309Z,3964.00
2019-05-19T16:03:10.287Z,3928.00
2019-05-19T16:04:10.279Z,3888.00
2019-05-19T16:05:10.266Z,3844.00
2019-05-19T16:06:10.254Z,3800.00
2019-05-19T16:07:10.251Z,3756.00
2019-05-19T16:08:10.232Z,3716.00
2019-05-19T16:09:10.218Z,3680.00
2019-05-19T16:10:10.212Z,3660.00
2019-05-19T16:11:10.200Z,3632.00
2019-05-19T16:12:10.195Z,3604.00
2019-05-19T16:13:10.211Z,3600.00
2019-05-19T16:14:10.162Z,3596.00
2019-05-19T16:15:10.179Z,3588.00
2019-05-19T16:16:10.142Z,3572.00
2019-05-19T16:17:10.144Z,3540.00
2019-05-19T16:18:10.124Z,3512.00
2019-05-19T16:19:10.114Z,3492.00
2019-05-19T16:20:10.105Z,3480.00
2019-05-19T16:21:10.087Z,3460.00
2019-05-19T16:22:10.082Z,3440.00
2019-05-19T16:23:10.063Z,3428.00
2019-05-19T16:24:10.053Z,3412.00
2019-05-19T16:25:10.046Z,3388.00
2019-05-19T16:26:10.029Z,3372.00
2019-05-19T16:27:12.715Z,3352.00
2019-05-19T16:28:10.017Z,3324.00
2019-05-19T16:29:10.025Z,3292.00
2019-05-19T16:30:09.988Z,3264.00
2019-05-19T16:31:09.980Z,3248.00
2019-05-19T16:32:09.976Z,3248.00
2019-05-19T16:33:09.954Z,3252.00
2019-05-19T16:34:09.963Z,3260.00
2019-05-19T16:35:09.929Z,3272.00
2019-05-19T16:36:09.923Z,3284.00
2019-05-19T16:37:09.907Z,3284.00
2019-05-19T16:38:09.904Z,3264.00
2019-05-19T16:39:09.881Z,3232.00
2019-05-19T16:40:09.872Z,3204.00
2019-05-19T16:41:09.884Z,3180.00
2019-05-19T16:42:09.851Z,3164.00
2019-05-19T16:43:09.855Z,3152.00
2019-05-19T16:44:09.830Z,3128.00
2019-05-19T16:45:09.817Z,3108.00
2019-05-19T16:46:09.806Z,3080.00
2019-05-19T16:47:09.796Z,3036.00
2019-05-19T16:48:09.791Z,2996.00
2019-05-19T16:49:09.774Z,2948.00
2019-05-19T16:50:09.760Z,2912.00
2019-05-19T16:51:09.750Z,2884.00
2019-05-19T16:52:09.738Z,2892.00
2019-05-19T16:53:09.736Z,2904.00
2019-05-19T16:54:09.713Z,2884.00
2019-05-19T16:55:09.709Z,2880.00
2019-05-19T16:56:09.694Z,2860.00
2019-05-19T16:57:09.693Z,2836.00
2019-05-19T16:58:20.658Z,2816.00
2019-05-19T16:59:10.659Z,2792.00
2019-05-19T17:00:09.648Z,2748.00
2019-05-19T17:01:09.643Z,2704.00
2019-05-19T17:02:09.627Z,2648.00
2019-05-19T17:03:09.624Z,2588.00
2019-05-19T17:04:09.604Z,2520.00
2019-05-19T17:05:09.596Z,2440.00
2019-05-19T17:06:09.581Z,2368.00
2019-05-19T17:07:09.570Z,2340.00
2019-05-19T17:08:09.565Z,2328.00
2019-05-19T17:09:09.550Z,2376.00
2019-05-19T17:10:09.610Z,2456.00
2019-05-19T17:11:17.992Z,2536.00
2019-05-19T17:12:10.565Z,2584.00
2019-05-19T17:13:09.514Z,2600.00
2019-05-19T17:14:09.491Z,2548.00
2019-05-19T17:15:09.482Z,2476.00
2019-05-19T17:16:09.473Z,2348.00
2019-05-19T17:17:09.458Z,2232.00
2019-05-19T17:18:09.462Z,2164.00
2019-05-19T17:19:09.437Z,2140.00
2019-05-19T17:20:09.425Z,2136.00
2019-05-19T17:21:09.429Z,2136.00
2019-05-19T17:22:09.402Z,2144.00
2019-05-19T17:23:09.403Z,2180.00
2019-05-19T17:24:09.380Z,2216.00
2019-05-19T17:25:09.378Z,2184.00
2019-05-19T17:26:09.360Z,2112.00
2019-05-19T17:27:09.354Z,2020.00
2019-05-19T17:28:09.334Z,1952.00
2019-05-19T17:29:09.338Z,1900.00
2019-05-19T17:30:09.315Z,1884.00
2019-05-19T17:31:09.310Z,1844.00
2019-05-19T17:32:09.290Z,1804.00
2019-05-19T17:33:09.282Z,1764.00
2019-05-19T17:34:09.323Z,1724.00
2019-05-19T17:35:09.257Z,1684.00
2019-05-19T17:36:09.253Z,1656.00
2019-05-19T17:37:09.232Z,1628.00
2019-05-19T17:38:09.223Z,1600.00
2019-05-19T17:39:09.221Z,1572.00
2019-05-19T17:40:09.200Z,1548.00
2019-05-19T17:41:09.189Z,1512.00
2019-05-19T17:42:09.191Z,1492.00
2019-05-19T17:43:09.202Z,1520.00
2019-05-19T17:44:09.162Z,1552.00
2019-05-19T17:45:09.144Z,1568.00
2019-05-19T17:46:09.137Z,1568.00
2019-05-19T17:47:09.170Z,1548.00
2019-05-19T17:48:11.760Z,1512.00
2019-05-19T17:49:10.109Z,1468.00
2019-05-19T17:50:09.087Z,1420.00
2019-05-19T17:51:09.077Z,1380.00
2019-05-19T17:52:09.068Z,1332.00
2019-05-19T17:53:09.057Z,1300.00
2019-05-19T17:54:09.054Z,1268.00
2019-05-19T17:55:09.032Z,1236.00
2019-05-19T17:56:09.020Z,1192.00
2019-05-19T17:57:09.010Z,1156.00
2019-05-19T17:58:09.000Z,1128.00
2019-05-19T17:59:16.639Z,1096.00
2019-05-19T18:00:10.334Z,1064.00
2019-05-19T18:01:08.968Z,1028.00
2019-05-19T18:02:08.954Z,1000.00
2019-05-19T18:03:08.944Z,980.00
2019-05-19T18:04:08.939Z,964.00
2019-05-19T18:05:08.918Z,960.00
2019-05-19T18:06:08.910Z,956.00
2019-05-19T18:07:08.901Z,968.00
2019-05-19T18:08:08.888Z,988.00
2019-05-19T18:09:08.891Z,1000.00
2019-05-19T18:10:08.866Z,1004.00
2019-05-19T18:11:08.854Z,1004.00
2019-05-19T18:12:08.843Z,996.00
2019-05-19T18:13:08.831Z,980.00
2019-05-19T18:14:08.822Z,952.00
2019-05-19T18:15:08.818Z,920.00
2019-05-19T18:16:08.796Z,888.00
2019-05-19T18:17:08.796Z,848.00
2019-05-19T18:18:08.772Z,812.00
2019-05-19T18:19:08.768Z,780.00
2019-05-19T18:20:22.725Z,756.00
2019-05-19T18:21:09.748Z,732.00
2019-05-19T18:22:08.732Z,712.00
2019-05-19T18:23:08.718Z,700.00
2019-05-19T18:24:08.707Z,688.00
2019-05-19T18:25:08.706Z,676.00
2019-05-19T18:26:08.684Z,664.00
2019-05-19T18:27:08.678Z,656.00
2019-05-19T18:28:08.675Z,644.00
2019-05-19T18:29:08.655Z,632.00
2019-05-19T18:30:08.667Z,624.00
2019-05-19T18:31:08.627Z,612.00
2019-05-19T18:32:08.618Z,600.00
2019-05-19T18:33:08.622Z,588.00
2019-05-19T18:34:08.593Z,580.00
2019-05-19T18:35:08.594Z,564.00
2019-05-19T18:36:08.570Z,552.00
2019-05-19T18:37:08.559Z,536.00
2019-05-19T18:38:08.554Z,524.00
2019-05-19T18:39:08.538Z,512.00
2019-05-19T18:40:08.548Z,500.00
2019-05-19T18:41:08.515Z,492.00
2019-05-19T18:42:08.507Z,484.00
2019-05-19T18:43:08.508Z,468.00
2019-05-19T18:44:08.481Z,448.00
2019-05-19T18:45:08.504Z,428.00
2019-05-19T18:46:08.465Z,408.00
2019-05-19T18:47:08.453Z,392.00
2019-05-19T18:48:08.435Z,380.00
2019-05-19T18:49:08.432Z,368.00
2019-05-19T18:50:08.428Z,352.00
2019-05-19T18:51:08.416Z,336.00
2019-05-19T18:52:08.394Z,320.00
2019-05-19T18:53:08.415Z,308.00
2019-05-19T18:54:08.375Z,292.00
2019-05-19T18:55:08.396Z,284.00
2019-05-19T18:56:08.378Z,272.00
2019-05-19T18:57:08.336Z,264.00
2019-05-19T18:58:08.328Z,256.00
2019-05-19T18:59:08.315Z,248.00
2019-05-19T19:00:08.303Z,236.00
2019-05-19T19:01:08.302Z,224.00
2019-05-19T19:02:08.281Z,216.00
2019-05-19T19:03:08.273Z,204.00
2019-05-19T19:04:08.258Z,192.00
2019-05-19T19:05:08.250Z,184.00
2019-05-19T19:06:08.244Z,176.00
2019-05-19T19:07:08.226Z,168.00
2019-05-19T19:08:08.259Z,160.00
2019-05-19T19:09:08.228Z,156.00
2019-05-19T19:10:08.192Z,144.00
2019-05-19T19:11:08.192Z,140.00
2019-05-19T19:12:08.177Z,132.00
2019-05-19T19:13:08.160Z,124.00
2019-05-19T19:14:08.148Z,116.00
2019-05-19T19:15:08.138Z,108.00
2019-05-19T19:16:08.133Z,100.00
2019-05-19T19:17:08.115Z,92.00
2019-05-19T19:18:08.102Z,88.00
2019-05-19T19:19:08.093Z,76.00
2019-05-19T19:20:08.082Z,72.00
2019-05-19T19:21:08.079Z,64.00
2019-05-19T19:22:08.057Z,60.00
2019-05-19T19:23:08.047Z,56.00
2019-05-19T19:24:08.035Z,48.00
2019-05-19T19:25:08.026Z,44.00
2019-05-19T19:26:08.023Z,40.00
2019-05-19T19:27:07.999Z,36.00
2019-05-19T19:28:07.997Z,28.00
2019-05-19T19:29:07.978Z,28.00
2019-05-19T19:30:07.971Z,24.00
2019-05-19T19:31:07.971Z,20.00
2019-05-19T19:32:07.948Z,20.00
2019-05-19T19:33:07.933Z,16.00
2019-05-19T19:34:07.921Z,16.00
2019-05-19T19:35:07.911Z,12.00
2019-05-19T19:36:07.908Z,12.00
2019-05-19T19:37:07.890Z,8.00
2019-05-19T19:38:07.883Z,8.00
2019-05-19T19:39:07.870Z,4.00
2019-05-19T19:40:07.895Z,8.00
2019-05-19T19:41:07.852Z,4.00
2019-05-19T19:42:07.831Z,4.00
2019-05-19T19:43:07.872Z,4.00
2019-05-19T19:44:07.810Z,4.00
2019-05-19T19:45:07.801Z,0.00
2019-05-19T19:46:07.824Z,4.00
2019-05-19T19:47:07.781Z,4.00
2019-05-19T19:48:07.766Z,4.00
2019-05-19T19:49:07.754Z,4.00
2019-05-19T19:50:07.747Z,0.00
2019-05-19T19:51:07.739Z,0.00
2019-05-19T19:52:07.721Z,0.00
2019-05-19T19:53:07.720Z,0.00
2019-05-19T19:54:07.700Z,0.00
2019-05-19T19:55:07.685Z,0.00
2019-05-19T19:56:07.692Z,0.00
2019-05-19T19:57:07.663Z,0.00
2019-05-19T19:58:07.656Z,0.00
2019-05-19T19:59:07.640Z,0.00
2019-05-19T20:00:17.758Z,0.00
2019-05-19T20:01:08.629Z,0.00
2019-05-19T20:02:07.637Z,0.00
2019-05-19T20:03:07.607Z,0.00
2019-05-19T20:04:07.602Z,0.00
2019-05-19T20:05:07.580Z,0.00
2019-05-19T20:06:07.574Z,0.00
2019-05-19T20:07:07.554Z,0.00
2019-05-19T20:08:07.540Z,0.00
2019-05-19T20:09:07.535Z,0.00
2019-05-19T20:10:07.519Z,0.00
2019-05-19T20:11:07.517Z,0.00
2019-05-19T20:12:07.494Z,0.00
2019-05-19T20:13:07.568Z,0.00
2019-05-19T20:14:07.481Z,0.00
2019-05-19T20:15:07.493Z,0.00
2019-05-19T20:16:07.457Z,0.00
2019-05-19T20:17:07.442Z,0.00
2019-05-19T20:18:07.432Z,0.00
2019-05-19T20:19:07.416Z,0.00
2019-05-19T20:20:07.408Z,0.00
2019-05-19T20:21:07.406Z,0.00
2019-05-19T20:22:07.385Z,0.00
2019-05-19T20:23:07.396Z,0.00
2019-05-19T20:24:07.361Z,0.00
2019-05-19T20:25:07.366Z,0.00
2019-05-19T20:26:07.339Z,0.00
2019-05-19T20:27:07.338Z,0.00
2019-05-19T20:28:07.320Z,0.00
2019-05-19T20:29:07.306Z,0.00
2019-05-19T20:30:07.295Z,0.00
2019-05-19T20:31:07.288Z,0.00
2019-05-19T20:32:07.282Z,0.00
2019-05-19T20:33:07.261Z,0.00
2019-05-19T20:34:07.253Z,0.00
2019-05-19T20:35:07.245Z,0.00
2019-05-19T20:36:07.232Z,0.00
2019-05-19T20:37:07.233Z,0.00
2019-05-19T20:38:07.211Z,0.00
2019-05-19T20:39:07.192Z,0.00
2019-05-19T20:40:07.185Z,0.00
2019-05-19T20:41:07.174Z,0.00
2019-05-19T20:42:07.173Z,0.00
2019-05-19T20:43:07.149Z,0.00
2019-05-19T20:44:07.137Z,0.00